Time;durP1;ratioP1;P1;durP2;ratioP2;P2;SDS_P1;SDS_P2;PMS_P1;PMS_P2;Temp;Humidity;BMP_temperature;BMP_pressure;BME280_temperature;BME280_humidity;BME280_pressure;Samples;Min_cycle;Max_cycle;Signal;HPM_P1;HPM_P2
2022/10/10 00:01:08;;;;;;;10.43;9.40;;;;;;;11.67;100.00;96804.22;5081422;28;20289;-60
2022/10/10 00:03:35;;;;;;;10.33;9.33;;;;;;;11.72;100.00;96802.84;5081477;28;20313;-60
2022/10/10 00:06:02;;;;;;;11.33;9.80;;;;;;;11.70;100.00;96798.63;5081715;28;20472;-60
2022/10/10 00:08:32;;;;;;;11.70;9.67;;;;;;;11.67;100.00;96799.75;5081579;28;20241;-60
2022/10/10 00:10:59;;;;;;;12.53;9.60;;;;;;;11.66;100.00;96798.09;5063803;28;20194;-60
2022/10/10 00:13:26;;;;;;;11.10;9.80;;;;;;;11.68;100.00;96801.44;5080473;28;20214;-60
2022/10/10 00:15:52;;;;;;;10.77;9.33;;;;;;;11.65;100.00;96809.69;5081178;28;20289;-59
2022/10/10 00:18:19;;;;;;;11.47;9.47;;;;;;;11.68;100.00;96804.09;5080742;28;20603;-60
2022/10/10 00:20:45;;;;;;;9.33;8.43;;;;;;;11.69;100.00;96803.09;5081390;28;20293;-60
2022/10/10 00:23:12;;;;;;;10.80;9.23;;;;;;;11.66;100.00;96798.09;5080763;28;20198;-58
2022/10/10 00:25:40;;;;;;;14.17;10.03;;;;;;;11.66;100.00;96803.38;5081046;28;20236;-60
2022/10/10 00:28:07;;;;;;;12.00;9.40;;;;;;;11.67;100.00;96804.22;5081051;28;20281;-59
2022/10/10 00:30:33;;;;;;;10.23;9.23;;;;;;;11.68;100.00;96811.19;5085390;28;20198;-58
2022/10/10 00:33:00;;;;;;;11.30;9.30;;;;;;;11.67;100.00;96810.38;5089413;28;20304;-59
2022/10/10 00:35:28;;;;;;;9.23;8.43;;;;;;;11.72;100.00;96802.84;5086025;28;20281;-59
2022/10/10 00:37:55;;;;;;;10.07;9.07;;;;;;;11.67;100.00;96805.06;5067396;28;20210;-60
2022/10/10 00:40:22;;;;;;;10.60;9.00;;;;;;;11.70;100.00;96794.19;5084770;28;20652;-58
2022/10/10 00:42:50;;;;;;;10.07;9.07;;;;;;;11.67;100.00;96805.06;5085550;28;20284;-59
2022/10/10 00:45:32;;;;;;;10.17;9.17;;;;;;;11.65;100.00;96801.75;5084814;28;20210;-60
2022/10/10 00:48:03;;;;;;;9.83;8.83;;;;;;;11.65;100.00;96804.38;5100191;28;20201;-62
2022/10/10 00:50:31;;;;;;;9.47;8.57;;;;;;;11.63;100.00;96802.84;5108011;28;20186;-61
2022/10/10 00:52:58;;;;;;;10.33;8.57;;;;;;;11.63;100.00;96806.34;5108061;28;20233;-62
2022/10/10 00:55:25;;;;;;;9.53;8.57;;;;;;;11.63;100.00;96797.53;5091229;28;20238;-59
2022/10/10 00:57:53;;;;;;;11.40;8.47;;;;;;;11.63;100.00;96797.53;5084706;28;20635;-60
2022/10/10 01:00:20;;;;;;;10.53;8.90;;;;;;;11.63;100.00;96808.97;5084846;28;20195;-59
2022/10/10 01:02:48;;;;;;;9.83;8.80;;;;;;;11.61;100.00;96799.53;5084899;28;20198;-60
2022/10/10 01:05:14;;;;;;;9.27;8.47;;;;;;;11.58;100.00;96797.16;5084946;28;20574;-58
2022/10/10 01:07:43;;;;;;;9.40;8.50;;;;;;;11.60;100.00;96803.97;5084030;28;20206;-59
2022/10/10 01:10:13;;;;;;;9.20;8.20;;;;;;;11.60;100.00;96803.97;5084206;28;20297;-59
2022/10/10 01:12:49;;;;;;;10.50;9.50;;;;;;;11.58;100.00;96795.34;5084020;28;20246;-60
2022/10/10 01:15:26;;;;;;;11.93;9.17;;;;;;;11.58;100.00;96794.53;5084707;28;20283;-61
2022/10/10 01:17:57;;;;;;;11.43;9.17;;;;;;;11.59;100.00;96802.31;5083981;28;20258;-58
2022/10/10 01:20:37;;;;;;;10.90;9.63;;;;;;;11.57;100.00;96793.69;5084741;28;20285;-59
2022/10/10 01:23:18;;;;;;;11.93;9.60;;;;;;;11.57;100.00;96798.97;5084002;28;20651;-60
2022/10/10 01:25:56;;;;;;;9.00;8.07;;;;;;;11.64;100.00;96796.56;5084853;28;20311;-59
2022/10/10 01:28:34;;;;;;;11.37;8.73;;;;;;;11.62;100.00;96791.41;5084647;28;20277;-59
2022/10/10 01:31:00;;;;;;;11.53;9.23;;;;;;;11.61;100.00;96787.13;5086317;28;20239;-59
2022/10/10 01:33:32;;;;;;;10.37;9.33;;;;;;;11.60;100.00;96787.25;5086439;28;20301;-60
2022/10/10 01:36:04;;;;;;;13.07;9.80;;;;;;;11.58;100.00;96795.34;5086015;28;20274;-60
2022/10/10 01:38:35;;;;;;;10.23;9.27;;;;;;;11.61;100.00;96789.75;5085180;28;20512;-59
2022/10/10 01:41:06;;;;;;;10.63;8.57;;;;;;;11.59;100.00;96786.41;5085503;28;20289;-60
2022/10/10 01:43:37;;;;;;;11.80;9.10;;;;;;;11.62;100.00;96788.75;5086413;28;20301;-60
2022/10/10 01:46:11;;;;;;;12.77;9.57;;;;;;;11.60;100.00;96787.25;5083845;28;20600;-59
2022/10/10 01:48:38;;;;;;;10.20;9.30;;;;;;;11.60;100.00;96790.75;5083831;28;20289;-58
2022/10/10 01:51:19;;;;;;;10.57;9.47;;;;;;;11.60;100.00;96788.09;5083211;28;20297;-59
2022/10/10 01:53:52;;;;;;;9.97;8.83;;;;;;;11.62;100.00;96788.75;5082900;28;20233;-60
2022/10/10 01:56:25;;;;;;;11.37;9.40;;;;;;;11.61;100.00;96787.13;5083642;28;20296;-59
2022/10/10 01:59:10;;;;;;;9.60;8.60;;;;;;;11.60;100.00;96788.09;5083483;28;20281;-59
2022/10/10 02:01:42;;;;;;;9.57;8.63;;;;;;;11.65;100.00;96785.84;5083611;28;20335;-58
2022/10/10 02:04:14;;;;;;;9.63;8.43;;;;;;;11.65;100.00;96780.56;5083123;28;20669;-60
2022/10/10 02:06:44;;;;;;;10.83;9.30;;;;;;;11.66;100.00;96781.34;5065445;28;20202;-60
2022/10/10 02:09:15;;;;;;;15.57;10.17;;;;;;;11.66;100.00;96791.94;5083427;28;20298;-59
2022/10/10 02:11:42;;;;;;;10.33;9.30;;;;;;;11.66;100.00;96782.19;5082889;28;20263;-60
2022/10/10 02:14:15;;;;;;;10.57;9.27;;;;;;;11.67;100.00;96783.88;5083923;28;20240;-58
2022/10/10 02:16:44;;;;;;;9.97;9.03;;;;;;;11.69;100.00;96781.91;5083421;28;20290;-59
2022/10/10 02:19:14;;;;;;;9.77;8.67;;;;;;;11.66;100.00;96782.19;5083432;28;20305;-59
2022/10/10 02:21:42;;;;;;;10.43;9.43;;;;;;;11.67;100.00;96778.56;5083346;28;20305;-60
2022/10/10 02:24:10;;;;;;;11.27;8.63;;;;;;;11.69;100.00;96783.75;5083161;28;20204;-59
2022/10/10 02:26:39;;;;;;;10.40;8.80;;;;;;;11.72;100.00;96780.81;5083054;28;20289;-60
2022/10/10 02:29:11;;;;;;;9.40;8.50;;;;;;;11.67;100.00;96773.28;5083351;28;20610;-58
2022/10/10 02:31:41;;;;;;;12.27;9.33;;;;;;;11.67;100.00;96770.63;5083477;28;20225;-58
2022/10/10 02:34:12;;;;;;;10.03;9.13;;;;;;;11.67;100.00;96769.78;5082934;28;20616;-59
2022/10/10 02:36:39;;;;;;;9.10;8.30;;;;;;;11.66;100.00;96770.75;5082979;28;20290;-60
2022/10/10 02:39:09;;;;;;;12.27;9.27;;;;;;;11.66;100.00;96766.31;5083101;28;20292;-59
2022/10/10 02:41:36;;;;;;;9.53;8.63;;;;;;;11.67;100.00;96773.28;5082632;28;20649;-60
2022/10/10 02:44:03;;;;;;;9.73;8.83;;;;;;;11.69;100.00;96773.16;5083050;28;20229;-60
2022/10/10 02:46:31;;;;;;;10.60;9.50;;;;;;;11.70;100.00;96774.78;5082466;28;20299;-59
2022/10/10 02:49:01;;;;;;;13.03;9.73;;;;;;;11.71;100.00;96777.34;5082530;28;20289;-61
2022/10/10 02:51:28;;;;;;;11.87;9.27;;;;;;;11.72;100.00;96773.72;5082253;28;20621;-59
2022/10/10 02:53:54;;;;;;;9.57;8.67;;;;;;;11.69;100.00;96781.91;5092817;28;20290;-59
2022/10/10 02:56:23;;;;;;;10.23;8.97;;;;;;;11.71;100.00;96780.00;5093764;28;20234;-60
2022/10/10 02:58:49;;;;;;;10.50;9.47;;;;;;;11.75;100.00;96777.88;5095781;28;20210;-61
2022/10/10 03:01:16;;;;;;;13.53;9.60;;;;;;;11.74;100.00;96779.69;5097094;28;20654;-59
2022/10/10 03:03:44;;;;;;;10.43;9.43;;;;;;;11.74;100.00;96779.69;5103316;28;20229;-60
2022/10/10 03:06:11;;;;;;;10.40;9.47;;;;;;;11.72;100.00;96772.88;5084571;28;20468;-59
2022/10/10 03:08:38;;;;;;;10.77;9.67;;;;;;;11.73;100.00;96772.72;5082553;28;20289;-59
2022/10/10 03:11:04;;;;;;;10.37;9.30;;;;;;;11.75;100.00;96783.19;5082601;28;20202;-60
2022/10/10 03:13:31;;;;;;;10.83;9.77;;;;;;;11.73;100.00;96780.66;5082425;28;20313;-59
2022/10/10 03:15:58;;;;;;;10.10;9.00;;;;;;;11.75;100.00;96781.38;5081978;28;20226;-60
2022/10/10 03:18:24;;;;;;;12.40;9.60;;;;;;;11.76;100.00;96777.72;5081541;28;20237;-60
2022/10/10 03:20:54;;;;;;;10.27;9.27;;;;;;;11.75;100.00;96778.72;5081870;28;20298;-60
2022/10/10 03:23:21;;;;;;;10.90;9.33;;;;;;;11.81;100.00;96780.78;5081490;28;20206;-60
2022/10/10 03:25:48;;;;;;;13.03;9.80;;;;;;;11.78;100.00;96775.78;5082608;28;20670;-58
2022/10/10 03:28:16;;;;;;;10.07;9.17;;;;;;;11.77;100.00;96771.44;5081291;28;20285;-58
2022/10/10 03:30:43;;;;;;;12.63;9.60;;;;;;;11.78;100.00;96775.78;5082799;28;20293;-60
2022/10/10 03:33:12;;;;;;;10.50;9.50;;;;;;;11.77;100.00;96778.56;5082682;28;20705;-60
2022/10/10 03:35:39;;;;;;;10.00;9.00;;;;;;;11.77;100.00;96775.91;5082553;28;20284;-59
2022/10/10 03:38:07;;;;;;;10.37;9.27;;;;;;;11.76;100.00;96772.41;5082401;28;20297;-60
2022/10/10 03:40:34;;;;;;;10.20;9.10;;;;;;;11.76;100.00;96776.91;5081689;28;20639;-58
2022/10/10 03:43:01;;;;;;;10.03;9.03;;;;;;;11.76;100.00;96772.41;5082384;28;20300;-60
2022/10/10 03:45:27;;;;;;;9.90;8.97;;;;;;;11.71;100.00;96777.34;5081504;28;20289;-60
2022/10/10 03:47:56;;;;;;;11.17;8.80;;;;;;;11.74;100.00;96779.69;5081480;28;20321;-60
2022/10/10 03:50:23;;;;;;;10.47;8.80;;;;;;;11.71;100.00;96780.00;5081678;28;20198;-59
2022/10/10 03:52:50;;;;;;;11.23;9.10;;;;;;;11.69;100.00;96775.78;5081741;28;20600;-58
2022/10/10 03:55:18;;;;;;;9.50;8.50;;;;;;;11.74;100.00;96781.50;5080990;28;20742;-58
2022/10/10 03:57:45;;;;;;;11.70;9.20;;;;;;;11.74;100.00;96781.50;5081211;28;20198;-58
2022/10/10 04:00:13;;;;;;;10.27;8.67;;;;;;;11.73;100.00;96783.31;5081451;28;20725;-60
2022/10/10 04:02:40;;;;;;;9.87;8.90;;;;;;;11.72;100.00;96779.00;5080188;28;20289;-59
2022/10/10 04:05:08;;;;;;;10.13;9.13;;;;;;;11.71;100.00;96780.00;5063143;28;20213;-61
2022/10/10 04:07:35;;;;;;;11.57;9.20;;;;;;;11.72;100.00;96781.66;5063699;28;20233;-60
2022/10/10 04:10:01;;;;;;;10.30;9.27;;;;;;;11.74;100.00;96785.00;5081320;28;20202;-60
2022/10/10 04:12:32;;;;;;;11.30;8.57;;;;;;;11.74;100.00;96781.50;5081386;28;20293;-61
2022/10/10 04:14:59;;;;;;;12.07;9.67;;;;;;;11.74;100.00;96782.34;5081150;28;20747;-58
2022/10/10 04:17:25;;;;;;;12.03;9.47;;;;;;;11.75;100.00;96776.06;5081186;28;20592;-60
2022/10/10 04:19:53;;;;;;;11.07;9.27;;;;;;;11.78;100.00;96783.72;5081142;28;20284;-59
2022/10/10 04:22:22;;;;;;;15.20;9.60;;;;;;;11.78;100.00;96782.88;5081434;28;20533;-59
2022/10/10 04:24:48;;;;;;;10.30;9.23;;;;;;;11.81;100.00;96786.06;5080869;28;20285;-59
2022/10/10 04:27:15;;;;;;;9.73;8.83;;;;;;;11.86;100.00;96773.22;5081336;28;20306;-60
2022/10/10 04:29:43;;;;;;;10.87;9.77;;;;;;;11.85;100.00;96776.84;5081306;28;20301;-60
2022/10/10 04:32:12;;;;;;;12.67;10.10;;;;;;;11.83;100.00;96781.44;5081178;28;20252;-60
2022/10/10 04:34:39;;;;;;;11.23;9.63;;;;;;;11.85;100.00;96782.16;5080714;28;20248;-60
2022/10/10 04:37:05;;;;;;;10.47;9.47;;;;;;;11.84;100.00;96776.97;5080168;28;20284;-60
2022/10/10 04:39:32;;;;;;;10.97;9.37;;;;;;;11.88;100.00;96776.56;5080618;28;20237;-60
2022/10/10 04:41:59;;;;;;;9.90;8.80;;;;;;;11.90;100.00;96777.22;5080713;28;20206;-60
2022/10/10 04:44:25;;;;;;;10.87;9.10;;;;;;;11.92;100.00;96772.63;5079826;28;20284;-61
2022/10/10 04:46:53;;;;;;;10.83;9.73;;;;;;;11.94;100.00;96770.66;5080792;28;20333;-59
2022/10/10 04:49:22;;;;;;;14.27;9.27;;;;;;;11.94;100.00;96778.59;5080704;28;20287;-61
2022/10/10 04:51:49;;;;;;;10.77;9.77;;;;;;;11.96;100.00;96774.00;5080262;28;20218;-59
2022/10/10 04:54:15;;;;;;;10.70;9.57;;;;;;;12.02;100.00;96780.50;5080675;28;20325;-59
2022/10/10 04:56:42;;;;;;;10.20;9.23;;;;;;;11.98;100.00;96774.69;5080335;28;20301;-60
2022/10/10 04:59:09;;;;;;;10.27;9.27;;;;;;;11.98;100.00;96782.63;5080380;28;20234;-59
2022/10/10 05:01:36;;;;;;;10.77;9.70;;;;;;;12.01;100.00;96785.97;5081678;28;20650;-60
2022/10/10 05:04:04;;;;;;;11.03;9.20;;;;;;;12.03;100.00;96784.00;5082025;28;20855;-60
2022/10/10 05:06:31;;;;;;;12.17;9.20;;;;;;;12.04;100.00;96780.38;5081774;28;20282;-60
2022/10/10 05:08:58;;;;;;;13.90;9.87;;;;;;;12.06;100.00;96783.69;5086817;28;20361;-60
2022/10/10 05:11:24;;;;;;;9.77;8.90;;;;;;;12.07;100.00;96783.56;5085617;28;20645;-60
2022/10/10 05:13:51;;;;;;;10.93;9.03;;;;;;;12.11;100.00;96784.94;5085950;28;20250;-60
2022/10/10 05:16:19;;;;;;;9.93;8.93;;;;;;;12.12;100.00;96783.94;5089816;28;20202;-60
2022/10/10 05:18:46;;;;;;;10.87;9.47;;;;;;;12.13;100.00;96780.31;5089979;28;20297;-60
2022/10/10 05:21:14;;;;;;;10.63;9.43;;;;;;;12.14;100.00;96781.16;5087695;28;20636;-61
2022/10/10 05:23:42;;;;;;;10.70;9.60;;;;;;;12.13;100.00;96785.63;5087878;28;20709;-60
2022/10/10 05:26:09;;;;;;;10.83;9.93;;;;;;;12.14;100.00;96786.44;5088589;28;20297;-60
2022/10/10 05:28:36;;;;;;;11.63;9.87;;;;;;;12.14;100.00;96792.59;5090134;28;20237;-59
2022/10/10 05:31:03;;;;;;;11.10;9.70;;;;;;;12.13;100.00;96795.38;5084975;28;21207;-60
2022/10/10 05:33:30;;;;;;;10.33;9.13;;;;;;;12.17;100.00;96791.44;5084537;28;20234;-60
2022/10/10 05:36:03;;;;;;;10.73;9.63;;;;;;;12.18;100.00;96795.78;5085070;28;20298;-60
2022/10/10 05:38:33;;;;;;;10.93;9.70;;;;;;;12.18;100.00;96793.97;5084044;28;20209;-60
2022/10/10 05:40:59;;;;;;;11.33;10.07;;;;;;;12.20;100.00;96799.09;5082533;28;20294;-60
2022/10/10 05:43:26;;;;;;;10.70;9.67;;;;;;;12.18;100.00;96801.09;5083920;28;20209;-60
2022/10/10 05:45:53;;;;;;;11.47;10.00;;;;;;;12.17;100.00;96800.25;5083429;28;20332;-61
2022/10/10 05:48:20;;;;;;;12.37;9.67;;;;;;;12.19;100.00;96800.06;5083136;28;20329;-60
2022/10/10 05:50:48;;;;;;;10.23;9.23;;;;;;;12.21;100.00;96793.66;5083411;28;20252;-60
2022/10/10 05:53:14;;;;;;;10.30;9.40;;;;;;;12.23;100.00;96799.63;5083036;28;20202;-60
2022/10/10 05:55:43;;;;;;;11.07;9.77;;;;;;;12.25;100.00;96795.03;5083253;28;20317;-60
2022/10/10 05:58:12;;;;;;;10.50;9.50;;;;;;;12.26;100.00;96799.34;5083412;28;20201;-60
2022/10/10 06:00:40;;;;;;;10.40;9.50;;;;;;;12.28;100.00;96791.25;5084021;28;20201;-59
2022/10/10 06:03:07;;;;;;;11.27;10.10;;;;;;;12.25;100.00;96789.72;5083896;28;20206;-59
2022/10/10 06:05:34;;;;;;;10.13;9.17;;;;;;;12.30;100.00;96797.22;5083378;28;20203;-60
2022/10/10 06:08:01;;;;;;;14.60;9.73;;;;;;;12.32;100.00;96798.75;5083092;28;20244;-60
2022/10/10 06:10:27;;;;;;;11.70;10.20;;;;;;;12.33;100.00;96802.22;5083475;28;20234;-60
2022/10/10 06:12:55;;;;;;;10.07;9.20;;;;;;;12.37;100.00;96793.81;5082991;28;20290;-60
2022/10/10 06:15:22;;;;;;;10.27;9.27;;;;;;;12.38;100.00;96795.50;5082800;28;20255;-60
2022/10/10 06:17:49;;;;;;;11.70;9.07;;;;;;;12.40;100.00;96797.97;5083519;28;20226;-59
2022/10/10 06:20:16;;;;;;;10.47;9.23;;;;;;;12.41;100.00;96800.50;5083587;28;20241;-61
2022/10/10 06:22:42;;;;;;;10.43;9.40;;;;;;;12.44;100.00;96794.88;5083832;28;20242;-58
2022/10/10 06:25:09;;;;;;;11.17;9.07;;;;;;;12.48;100.00;96798.06;5085068;28;20205;-60
2022/10/10 06:27:36;;;;;;;10.20;8.00;;;;;;;12.51;100.00;96789.81;5084456;28;20287;-60
2022/10/10 06:30:06;;;;;;;10.23;9.23;;;;;;;12.55;100.00;96791.19;5084503;28;20240;-60
2022/10/10 06:32:33;;;;;;;9.67;8.77;;;;;;;12.58;100.00;96796.16;5084747;28;20287;-60
2022/10/10 06:34:59;;;;;;;9.60;8.60;;;;;;;12.61;100.00;96801.16;5085210;28;20248;-61
2022/10/10 06:37:26;;;;;;;11.03;9.23;;;;;;;12.63;100.00;96807.19;5084983;28;20281;-59
2022/10/10 06:39:53;;;;;;;10.00;9.03;;;;;;;12.67;100.00;96811.19;5084193;28;20297;-60
2022/10/10 06:42:19;;;;;;;11.77;9.47;;;;;;;12.69;100.00;96808.38;5085538;28;20210;-60
2022/10/10 06:44:46;;;;;;;9.40;8.40;;;;;;;12.73;100.00;96809.75;5086366;28;20293;-59
2022/10/10 06:47:14;;;;;;;9.90;8.90;;;;;;;12.79;100.00;96817.94;5082399;28;20337;-59
2022/10/10 06:49:41;;;;;;;10.43;8.37;;;;;;;12.84;100.00;96817.47;5082393;28;20198;-58
2022/10/10 06:52:09;;;;;;;8.80;7.87;;;;;;;12.84;100.00;96818.31;5082640;28;20992;-57
2022/10/10 06:54:36;;;;;;;9.23;8.10;;;;;;;12.87;100.00;96818.00;5080836;28;20280;-58
2022/10/10 06:57:03;;;;;;;8.63;7.80;;;;;;;12.92;100.00;96818.41;5083336;28;20294;-57
2022/10/10 06:59:29;;;;;;;10.57;8.23;;;;;;;12.95;100.00;96825.22;5082473;28;20623;-58
2022/10/10 07:01:56;;;;;;;18.87;8.37;;;;;;;13.00;100.00;96832.72;5081714;28;20289;-58
2022/10/10 07:04:24;;;;;;;9.00;8.10;;;;;;;13.04;100.00;96839.41;5080847;28;20202;-59
2022/10/10 07:06:51;;;;;;;10.70;8.40;;;;;;;13.07;100.00;96839.09;5081290;28;20289;-59
2022/10/10 07:09:18;;;;;;;8.77;7.80;;;;;;;13.12;100.00;96842.13;5081542;28;20204;-57
2022/10/10 07:11:45;;;;;;;9.63;8.63;;;;;;;13.17;100.00;96847.81;5081508;28;20201;-57
2022/10/10 07:14:12;;;;;;;9.43;8.40;;;;;;;13.19;100.00;96846.69;5081565;28;20229;-60
2022/10/10 07:16:39;;;;;;;9.23;8.30;;;;;;;13.25;100.00;96847.91;5081512;28;20256;-60
2022/10/10 07:19:06;;;;;;;9.17;8.37;;;;;;;13.31;100.00;96847.28;5082286;28;20528;-59
2022/10/10 07:21:34;;;;;;;10.23;8.80;;;;;;;13.37;100.00;96851.94;5081624;28;20710;-60
2022/10/10 07:24:00;;;;;;;9.73;8.83;;;;;;;13.37;100.00;96857.25;5081161;28;20583;-58
2022/10/10 07:26:29;;;;;;;9.77;8.60;;;;;;;13.39;100.00;96863.28;5081641;28;20299;-58
2022/10/10 07:28:56;;;;;;;9.37;8.37;;;;;;;13.42;100.00;96860.31;5081878;28;20202;-57
2022/10/10 07:31:23;;;;;;;9.93;7.83;;;;;;;13.46;100.00;96861.66;5081023;28;20336;-60
2022/10/10 07:33:50;;;;;;;9.83;7.30;;;;;;;13.50;100.00;96862.19;5080898;28;20285;-60
2022/10/10 07:36:17;;;;;;;11.97;8.23;;;;;;;13.54;100.00;96869.66;5081604;28;20226;-60
2022/10/10 07:38:48;;;;;;;14.23;7.93;;;;;;;13.58;100.00;96868.38;5081464;28;20521;-60
2022/10/10 07:41:15;;;;;;;10.50;8.10;;;;;;;13.64;100.00;96870.41;5081662;28;20552;-60
2022/10/10 07:43:42;;;;;;;8.77;7.87;;;;;;;13.71;100.00;96876.75;5081258;28;20211;-60
2022/10/10 07:46:14;;;;;;;9.53;8.60;;;;;;;13.78;100.00;96877.78;5081029;28;20708;-60
2022/10/10 07:48:41;;;;;;;7.83;7.13;;;;;;;13.81;100.00;96884.66;5081096;28;20597;-60
2022/10/10 07:51:08;;;;;;;8.20;7.30;;;;;;;13.85;100.00;96878.03;5081912;28;20313;-58
2022/10/10 07:53:35;;;;;;;8.80;7.83;;;;;;;13.91;100.00;96886.19;5081403;28;20296;-59
2022/10/10 07:56:05;;;;;;;8.60;7.57;;;;;;;13.96;100.00;96889.19;5081849;28;20567;-58
2022/10/10 07:58:33;;;;;;;10.17;7.60;;;;;;;14.00;100.00;96875.59;5081762;28;20221;-59
2022/10/10 08:01:04;;;;;;;8.80;7.90;;;;;;;14.06;100.00;96888.28;5081568;28;20284;-60
2022/10/10 08:03:31;;;;;;;8.00;7.30;;;;;;;14.08;100.00;96891.59;5081649;28;20739;-60
2022/10/10 08:05:58;;;;;;;9.27;7.77;;;;;;;14.08;100.00;96897.75;5064159;28;20669;-60
2022/10/10 08:08:24;;;;;;;8.23;7.40;;;;;;;14.11;100.00;96893.94;5083001;28;20249;-60
2022/10/10 08:10:51;;;;;;;10.73;7.43;;;;;;;14.12;100.00;96898.25;5082614;28;20245;-60
2022/10/10 08:13:19;;;;;;;10.03;8.07;;;;;;;14.12;100.00;96898.25;5082374;28;20321;-60
2022/10/10 08:15:46;;;;;;;11.30;7.63;;;;;;;14.18;100.00;96900.28;5081944;28;20226;-60
2022/10/10 08:18:13;;;;;;;9.20;7.60;;;;;;;14.21;100.00;96899.97;5084693;28;20241;-61
2022/10/10 08:20:40;;;;;;;7.93;7.07;;;;;;;14.27;100.00;96892.19;5090132;28;20221;-59
2022/10/10 08:23:07;;;;;;;10.20;7.93;;;;;;;14.32;100.00;96897.03;5092496;28;20245;-62
2022/10/10 08:25:33;;;;;;;11.67;6.83;;;;;;;14.36;100.00;96887.75;5101962;28;20209;-59
2022/10/10 08:28:00;;;;;;;7.40;6.70;;;;;;;14.48;100.00;96897.13;5094165;28;20279;-59
2022/10/10 08:30:28;;;;;;;7.87;6.80;;;;;;;14.54;100.00;96895.63;5085074;28;20202;-60
2022/10/10 08:32:55;;;;;;;9.17;7.07;;;;;;;14.60;100.00;96893.16;5085940;28;20230;-60
2022/10/10 08:35:22;;;;;;;8.83;7.47;;;;;;;14.67;100.00;96890.69;5085596;28;20256;-59
2022/10/10 08:37:49;;;;;;;8.87;6.47;;;;;;;14.72;100.00;96889.22;5083700;28;20255;-60
2022/10/10 08:40:18;;;;;;;10.97;7.97;;;;;;;14.70;100.00;96888.53;5084929;28;20309;-60
2022/10/10 08:42:48;;;;;;;9.85;6.38;;;;;;;14.83;100.00;96893.41;5082949;28;20227;-60
2022/10/10 08:45:16;;;;;;;8.07;6.78;;;;;;;14.90;100.00;96892.59;5082369;28;20580;-59
2022/10/10 08:47:49;;;;;;;12.13;6.83;;;;;;;14.99;100.00;96889.91;5080262;28;20279;-60
2022/10/10 08:50:18;;;;;;;10.63;7.17;;;;;;;15.06;100.00;96902.41;5082769;28;20230;-60
2022/10/10 08:52:48;;;;;;;10.50;6.85;;;;;;;15.12;100.00;96890.28;5085152;28;20300;-58
2022/10/10 08:55:18;;;;;;;7.93;6.20;;;;;;;15.20;100.00;96903.59;5086665;28;20241;-60
2022/10/10 08:57:50;;;;;;;7.78;6.45;;;;;;;15.23;100.00;96905.97;5087509;28;20194;-59
2022/10/10 09:00:19;;;;;;;7.95;6.82;;;;;;;15.28;100.00;96901.78;5086866;28;20206;-60
2022/10/10 09:02:49;;;;;;;6.87;6.17;;;;;;;15.38;100.00;96907.78;5084965;28;20198;-60
2022/10/10 09:05:19;;;;;;;10.07;7.10;;;;;;;15.41;100.00;96903.94;5084937;28;20198;-60
2022/10/10 09:08:04;;;;;;;9.63;7.07;;;;;;;15.54;100.00;96901.66;5085048;28;20734;-60
2022/10/10 09:10:34;;;;;;;11.07;6.88;;;;;;;15.64;100.00;96898.81;5084555;28;20257;-59
2022/10/10 09:13:09;;;;;;;8.40;6.17;;;;;;;15.70;100.00;96896.31;5084617;28;20290;-60
2022/10/10 09:15:40;;;;;;;8.32;6.65;;;;;;;15.79;100.00;96899.81;5084430;28;20308;-59
2022/10/10 09:18:14;;;;;;;6.60;6.00;;;;;;;15.87;100.00;96889.94;5084448;28;20225;-59
2022/10/10 09:20:47;;;;;;;9.00;6.22;;;;;;;15.98;100.00;96893.28;5085356;28;20226;-59
2022/10/10 09:23:21;;;;;;;8.95;6.30;;;;;;;16.03;100.00;96891.75;5084567;28;20222;-61
2022/10/10 09:25:53;;;;;;;7.22;5.57;;;;;;;16.18;100.00;96889.22;5084455;28;20248;-61
2022/10/10 09:28:33;;;;;;;7.72;6.22;;;;;;;16.28;100.00;96889.84;5084484;28;20205;-60
2022/10/10 09:31:01;;;;;;;7.45;6.00;;;;;;;16.36;100.00;96889.81;5083775;28;20197;-59
2022/10/10 09:33:32;;;;;;;9.98;5.22;;;;;;;16.46;100.00;96892.28;5083939;28;20234;-61
2022/10/10 09:35:59;;;;;;;11.10;6.05;;;;;;;16.48;100.00;96890.25;5084317;28;20329;-61
2022/10/10 09:38:33;;;;;;;6.00;5.38;;;;;;;16.51;100.00;96890.72;5083859;28;20311;-60
2022/10/10 09:41:02;;;;;;;6.85;4.97;;;;;;;16.58;100.00;96894.41;5083959;28;20237;-60
2022/10/10 09:43:32;;;;;;;8.43;5.22;;;;;;;16.67;100.00;96889.88;5083107;28;20214;-60
2022/10/10 09:45:59;;;;;;;9.05;4.90;;;;;;;16.75;100.00;96893.34;5083167;28;20226;-60
2022/10/10 09:48:31;;;;;;;8.30;4.95;;;;;;;16.98;100.00;96896.03;5082976;28;20627;-61
2022/10/10 09:50:58;;;;;;;10.52;5.18;;;;;;;17.23;99.68;96894.00;5083287;28;20199;-60
2022/10/10 09:53:25;;;;;;;7.40;4.80;;;;;;;17.68;98.18;96896.69;5083113;28;20198;-60
2022/10/10 09:55:53;;;;;;;7.35;4.70;;;;;;;17.92;94.87;96897.47;5083438;28;20316;-60
2022/10/10 09:58:26;;;;;;;5.75;5.15;;;;;;;18.23;92.00;96899.00;5082952;28;20238;-60
2022/10/10 10:00:53;;;;;;;7.25;4.70;;;;;;;18.50;88.90;96900.16;5081021;28;20631;-60
2022/10/10 10:03:21;;;;;;;7.78;4.10;;;;;;;18.97;88.80;96891.72;5083602;28;20598;-59
2022/10/10 10:05:57;;;;;;;4.88;4.20;;;;;;;19.24;86.06;96896.31;5082819;28;20657;-57
2022/10/10 10:08:31;;;;;;;4.85;4.15;;;;;;;19.46;85.54;96902.56;5085128;28;20252;-57
2022/10/10 10:10:58;;;;;;;7.55;4.20;;;;;;;19.74;83.63;96900.75;5085451;28;20198;-57
2022/10/10 10:13:28;;;;;;;7.72;4.38;;;;;;;19.90;82.76;96905.03;5083985;28;20595;-58
2022/10/10 10:16:00;;;;;;;6.40;4.05;;;;;;;20.04;82.69;96897.88;5084661;28;20245;-57
2022/10/10 10:18:28;;;;;;;6.50;4.70;;;;;;;19.79;80.76;96895.66;5083335;28;20764;-55
2022/10/10 10:21:11;;;;;;;7.28;3.90;;;;;;;19.70;80.69;96912.88;5083052;28;20281;-58
2022/10/10 10:23:42;;;;;;;5.18;3.63;;;;;;;19.63;83.45;96900.44;5083189;28;20290;-57
2022/10/10 10:26:21;;;;;;;6.25;3.28;;;;;;;19.76;83.31;96896.03;5082681;28;20387;-58
2022/10/10 10:28:49;;;;;;;6.63;3.92;;;;;;;19.90;82.36;96901.50;5082978;28;20194;-58
2022/10/10 10:31:22;;;;;;;7.63;4.72;;;;;;;20.22;81.06;96898.22;5082185;28;20719;-58
2022/10/10 10:33:54;;;;;;;7.93;4.45;;;;;;;20.50;79.89;96899.03;5083027;28;20284;-56
2022/10/10 10:36:31;;;;;;;4.75;3.80;;;;;;;20.67;77.01;96903.06;5081824;28;20674;-57
2022/10/10 10:39:03;;;;;;;4.60;4.05;;;;;;;20.53;77.31;96893.28;5082215;28;20295;-59
2022/10/10 10:41:34;;;;;;;4.90;3.80;;;;;;;20.59;78.09;96897.84;5083244;28;20208;-59
2022/10/10 10:44:20;;;;;;;5.30;3.45;;;;;;;20.64;78.99;96902.63;5082558;28;20290;-59
2022/10/10 10:46:52;;;;;;;7.07;3.80;;;;;;;20.77;77.51;96898.13;5084390;28;20254;-61
2022/10/10 10:49:30;;;;;;;4.72;3.50;;;;;;;20.98;77.79;96897.16;5092421;28;20208;-60
2022/10/10 10:52:14;;;;;;;6.10;3.10;;;;;;;21.09;76.05;96893.06;5104941;28;20205;-61
2022/10/10 10:54:55;;;;;;;4.30;3.00;;;;;;;20.98;76.81;96896.34;5106990;28;20166;-60
2022/10/10 10:57:28;;;;;;;4.78;3.10;;;;;;;20.51;74.59;96889.94;5097372;28;20218;-60
2022/10/10 10:59:59;;;;;;;2.97;2.78;;;;;;;20.26;76.40;96891.44;5086612;28;20228;-60
2022/10/10 11:02:34;;;;;;;2.97;2.78;;;;;;;19.98;78.66;96888.75;5081937;28;20287;-59
2022/10/10 11:05:11;;;;;;;3.28;2.97;;;;;;;19.74;80.59;96876.59;5081938;28;20221;-58
2022/10/10 11:07:46;;;;;;;3.55;2.90;;;;;;;19.81;82.83;96885.53;5064250;28;20241;-59
2022/10/10 11:10:20;;;;;;;2.83;2.63;;;;;;;20.05;84.01;96888.81;5084032;28;20229;-58
2022/10/10 11:12:55;;;;;;;2.83;2.63;;;;;;;20.39;81.69;96886.16;5085292;28;20251;-60
2022/10/10 11:15:25;;;;;;;2.95;2.65;;;;;;;20.71;80.20;96885.50;5084072;28;20226;-59
2022/10/10 11:17:56;;;;;;;3.35;2.63;;;;;;;21.01;76.96;96885.19;5084429;28;20629;-59
2022/10/10 11:20:27;;;;;;;4.95;2.67;;;;;;;21.18;77.90;96881.13;5086344;28;20213;-60
2022/10/10 11:23:00;;;;;;;2.78;2.58;;;;;;;21.30;74.72;96882.19;5085275;28;20241;-59
2022/10/10 11:25:31;;;;;;;4.43;3.20;;;;;;;21.40;76.39;96874.53;5081900;28;20226;-60
2022/10/10 11:28:00;;;;;;;3.38;3.08;;;;;;;21.38;73.94;96873.94;5081286;28;20289;-61
2022/10/10 11:30:29;;;;;;;5.22;2.90;;;;;;;21.42;74.65;96867.09;5081190;28;20289;-60